Westree, Canada
Current Conditions -  °F | °C
As of 1:00 PM on Wednesday 26 Nov 2014 (Local Time) from CYSB Reporting Station
Light Snow Light Snow  
Wind Chill: 13°   Ceiling: 2000
Heat Index: 21°   Visibility: 20mi
Dew Point: 14°   Wind: 7mph
Humidity: 74%   Direction: 80°E
Pressure: 30.18"   Gusts: NA
Location:  47.42°N, 81.53°W
Report Text: CYSB 261800Z 08006KT 20SM -SN BKN020 M06/M10 A3018 RMK SC7 -SN INTMT SLP245
Loading
Personal Weather Stations






























Interactive Weather Map New forecast layout! Learn more

10-Day Weather Forecast

Advertisements
Track Severe Weather on mobile